sensor_id;sensor_type;location;lat;lon;timestamp;P1;durP1;ratioP1;P2;durP2;ratioP2
7179;SDS011;3631;42.152;24.756;2022-08-16T00:02:22;15.95;;;14.55;;
7179;SDS011;3631;42.152;24.756;2022-08-16T00:04:49;16.17;;;14.68;;
7179;SDS011;3631;42.152;24.756;2022-08-16T00:07:17;20.20;;;15.70;;
7179;SDS011;3631;42.152;24.756;2022-08-16T00:09:44;17.17;;;15.52;;
7179;SDS011;3631;42.152;24.756;2022-08-16T00:12:10;17.77;;;15.55;;
7179;SDS011;3631;42.152;24.756;2022-08-16T00:14:37;18.20;;;16.33;;
7179;SDS011;3631;42.152;24.756;2022-08-16T00:17:04;19.10;;;17.10;;
7179;SDS011;3631;42.152;24.756;2022-08-16T00:19:33;18.30;;;15.70;;
7179;SDS011;3631;42.152;24.756;2022-08-16T00:22:01;18.27;;;16.63;;
7179;SDS011;3631;42.152;24.756;2022-08-16T00:24:28;18.45;;;16.55;;
7179;SDS011;3631;42.152;24.756;2022-08-16T00:26:55;18.38;;;16.60;;
7179;SDS011;3631;42.152;24.756;2022-08-16T00:29:22;17.00;;;15.23;;
7179;SDS011;3631;42.152;24.756;2022-08-16T00:31:50;19.00;;;16.08;;
7179;SDS011;3631;42.152;24.756;2022-08-16T00:34:18;17.13;;;15.60;;
7179;SDS011;3631;42.152;24.756;2022-08-16T00:36:48;17.88;;;16.08;;
7179;SDS011;3631;42.152;24.756;2022-08-16T00:39:16;17.95;;;16.15;;
7179;SDS011;3631;42.152;24.756;2022-08-16T00:41:45;17.35;;;15.75;;
7179;SDS011;3631;42.152;24.756;2022-08-16T00:44:13;18.08;;;15.70;;
7179;SDS011;3631;42.152;24.756;2022-08-16T00:46:44;18.70;;;17.00;;
7179;SDS011;3631;42.152;24.756;2022-08-16T00:49:16;19.30;;;16.33;;
7179;SDS011;3631;42.152;24.756;2022-08-16T00:51:44;18.83;;;16.83;;
7179;SDS011;3631;42.152;24.756;2022-08-16T00:54:13;17.88;;;16.08;;
7179;SDS011;3631;42.152;24.756;2022-08-16T00:56:41;17.13;;;15.45;;
7179;SDS011;3631;42.152;24.756;2022-08-16T00:59:10;17.73;;;15.98;;
7179;SDS011;3631;42.152;24.756;2022-08-16T01:01:40;18.30;;;16.55;;
7179;SDS011;3631;42.152;24.756;2022-08-16T01:04:08;20.27;;;18.08;;
7179;SDS011;3631;42.152;24.756;2022-08-16T01:06:37;19.90;;;17.92;;
7179;SDS011;3631;42.152;24.756;2022-08-16T01:09:05;29.52;;;24.60;;
7179;SDS011;3631;42.152;24.756;2022-08-16T01:11:35;20.83;;;18.45;;
7179;SDS011;3631;42.152;24.756;2022-08-16T01:14:05;18.77;;;16.45;;
7179;SDS011;3631;42.152;24.756;2022-08-16T01:16:36;19.13;;;17.13;;
7179;SDS011;3631;42.152;24.756;2022-08-16T01:19:05;18.15;;;16.45;;
7179;SDS011;3631;42.152;24.756;2022-08-16T01:21:40;17.38;;;15.55;;
7179;SDS011;3631;42.152;24.756;2022-08-16T01:24:16;16.08;;;14.60;;
7179;SDS011;3631;42.152;24.756;2022-08-16T01:26:47;17.10;;;15.55;;
7179;SDS011;3631;42.152;24.756;2022-08-16T01:29:17;17.15;;;15.35;;
7179;SDS011;3631;42.152;24.756;2022-08-16T01:31:47;18.27;;;15.23;;
7179;SDS011;3631;42.152;24.756;2022-08-16T01:34:14;19.55;;;15.90;;
7179;SDS011;3631;42.152;24.756;2022-08-16T01:36:44;18.60;;;16.50;;
7179;SDS011;3631;42.152;24.756;2022-08-16T01:39:13;17.65;;;15.95;;
7179;SDS011;3631;42.152;24.756;2022-08-16T01:41:43;18.63;;;16.80;;
7179;SDS011;3631;42.152;24.756;2022-08-16T01:44:11;19.30;;;17.02;;
7179;SDS011;3631;42.152;24.756;2022-08-16T01:46:39;20.42;;;16.67;;
7179;SDS011;3631;42.152;24.756;2022-08-16T01:49:09;18.23;;;16.27;;
7179;SDS011;3631;42.152;24.756;2022-08-16T01:51:38;22.50;;;16.70;;
7179;SDS011;3631;42.152;24.756;2022-08-16T01:54:07;24.45;;;17.30;;
7179;SDS011;3631;42.152;24.756;2022-08-16T01:56:34;19.92;;;17.83;;
7179;SDS011;3631;42.152;24.756;2022-08-16T01:59:04;22.00;;;17.00;;
7179;SDS011;3631;42.152;24.756;2022-08-16T02:01:33;20.10;;;16.98;;
7179;SDS011;3631;42.152;24.756;2022-08-16T02:04:01;24.50;;;16.42;;
7179;SDS011;3631;42.152;24.756;2022-08-16T02:06:28;22.00;;;17.80;;
7179;SDS011;3631;42.152;24.756;2022-08-16T02:08:55;18.52;;;16.73;;
7179;SDS011;3631;42.152;24.756;2022-08-16T02:11:23;19.25;;;17.45;;
7179;SDS011;3631;42.152;24.756;2022-08-16T02:13:51;19.48;;;17.50;;
7179;SDS011;3631;42.152;24.756;2022-08-16T02:16:20;18.92;;;16.83;;
7179;SDS011;3631;42.152;24.756;2022-08-16T02:18:47;19.40;;;16.52;;
7179;SDS011;3631;42.152;24.756;2022-08-16T02:21:15;18.45;;;16.50;;
7179;SDS011;3631;42.152;24.756;2022-08-16T02:23:43;19.90;;;17.35;;
7179;SDS011;3631;42.152;24.756;2022-08-16T02:26:11;19.70;;;17.70;;
7179;SDS011;3631;42.152;24.756;2022-08-16T02:28:39;19.38;;;17.50;;
7179;SDS011;3631;42.152;24.756;2022-08-16T02:31:07;20.10;;;18.13;;
7179;SDS011;3631;42.152;24.756;2022-08-16T02:33:37;19.77;;;16.60;;
7179;SDS011;3631;42.152;24.756;2022-08-16T02:36:05;18.42;;;16.50;;
7179;SDS011;3631;42.152;24.756;2022-08-16T02:38:32;19.00;;;17.02;;
7179;SDS011;3631;42.152;24.756;2022-08-16T02:41:00;18.65;;;16.58;;
7179;SDS011;3631;42.152;24.756;2022-08-16T02:43:29;17.92;;;16.00;;
7179;SDS011;3631;42.152;24.756;2022-08-16T02:45:57;17.42;;;15.70;;
7179;SDS011;3631;42.152;24.756;2022-08-16T02:48:25;17.90;;;16.02;;
7179;SDS011;3631;42.152;24.756;2022-08-16T02:50:54;22.10;;;16.70;;
7179;SDS011;3631;42.152;24.756;2022-08-16T02:53:22;17.27;;;15.50;;
7179;SDS011;3631;42.152;24.756;2022-08-16T02:55:49;16.88;;;15.20;;
7179;SDS011;3631;42.152;24.756;2022-08-16T02:58:17;16.60;;;14.90;;
7179;SDS011;3631;42.152;24.756;2022-08-16T03:00:44;19.63;;;14.75;;
7179;SDS011;3631;42.152;24.756;2022-08-16T03:03:11;17.73;;;15.60;;
7179;SDS011;3631;42.152;24.756;2022-08-16T03:05:38;17.05;;;15.45;;
7179;SDS011;3631;42.152;24.756;2022-08-16T03:08:07;18.05;;;16.13;;
7179;SDS011;3631;42.152;24.756;2022-08-16T03:10:34;17.80;;;15.57;;
7179;SDS011;3631;42.152;24.756;2022-08-16T03:13:02;17.80;;;16.00;;
7179;SDS011;3631;42.152;24.756;2022-08-16T03:15:30;20.27;;;16.30;;
7179;SDS011;3631;42.152;24.756;2022-08-16T03:17:57;18.17;;;16.33;;
7179;SDS011;3631;42.152;24.756;2022-08-16T03:20:24;18.38;;;16.52;;
7179;SDS011;3631;42.152;24.756;2022-08-16T03:22:51;17.40;;;15.60;;
7179;SDS011;3631;42.152;24.756;2022-08-16T03:25:20;18.80;;;16.20;;
7179;SDS011;3631;42.152;24.756;2022-08-16T03:27:47;17.80;;;16.20;;
7179;SDS011;3631;42.152;24.756;2022-08-16T03:30:15;18.67;;;16.77;;
7179;SDS011;3631;42.152;24.756;2022-08-16T03:32:44;20.90;;;17.02;;
7179;SDS011;3631;42.152;24.756;2022-08-16T03:35:11;19.27;;;16.67;;
7179;SDS011;3631;42.152;24.756;2022-08-16T03:37:38;21.98;;;17.75;;
7179;SDS011;3631;42.152;24.756;2022-08-16T03:40:09;21.13;;;18.08;;
7179;SDS011;3631;42.152;24.756;2022-08-16T03:42:38;20.60;;;18.48;;
7179;SDS011;3631;42.152;24.756;2022-08-16T03:45:06;20.38;;;17.77;;
7179;SDS011;3631;42.152;24.756;2022-08-16T03:47:34;23.90;;;18.55;;
7179;SDS011;3631;42.152;24.756;2022-08-16T03:50:01;22.23;;;18.23;;
7179;SDS011;3631;42.152;24.756;2022-08-16T03:52:30;20.35;;;18.15;;
7179;SDS011;3631;42.152;24.756;2022-08-16T03:54:57;19.70;;;17.60;;
7179;SDS011;3631;42.152;24.756;2022-08-16T03:57:24;22.35;;;18.35;;
7179;SDS011;3631;42.152;24.756;2022-08-16T03:59:53;21.02;;;18.83;;
7179;SDS011;3631;42.152;24.756;2022-08-16T04:02:21;23.73;;;19.48;;
7179;SDS011;3631;42.152;24.756;2022-08-16T04:04:48;26.08;;;19.05;;
7179;SDS011;3631;42.152;24.756;2022-08-16T04:07:16;21.08;;;18.70;;
7179;SDS011;3631;42.152;24.756;2022-08-16T04:09:43;22.42;;;19.75;;
7179;SDS011;3631;42.152;24.756;2022-08-16T04:12:10;20.88;;;18.08;;
7179;SDS011;3631;42.152;24.756;2022-08-16T04:14:37;18.85;;;16.85;;
7179;SDS011;3631;42.152;24.756;2022-08-16T04:17:06;19.10;;;17.20;;
7179;SDS011;3631;42.152;24.756;2022-08-16T04:19:34;18.95;;;16.95;;
7179;SDS011;3631;42.152;24.756;2022-08-16T04:22:00;20.40;;;16.30;;
7179;SDS011;3631;42.152;24.756;2022-08-16T04:24:27;21.80;;;16.73;;
7179;SDS011;3631;42.152;24.756;2022-08-16T04:26:54;19.67;;;16.83;;
7179;SDS011;3631;42.152;24.756;2022-08-16T04:29:21;21.05;;;16.70;;
7179;SDS011;3631;42.152;24.756;2022-08-16T04:31:48;17.13;;;15.43;;
7179;SDS011;3631;42.152;24.756;2022-08-16T04:34:18;17.25;;;15.55;;
7179;SDS011;3631;42.152;24.756;2022-08-16T04:36:46;18.55;;;15.70;;
7179;SDS011;3631;42.152;24.756;2022-08-16T04:39:13;17.15;;;15.75;;
7179;SDS011;3631;42.152;24.756;2022-08-16T04:41:40;16.33;;;14.90;;
7179;SDS011;3631;42.152;24.756;2022-08-16T04:44:07;17.58;;;14.45;;
7179;SDS011;3631;42.152;24.756;2022-08-16T04:46:34;17.08;;;14.95;;
7179;SDS011;3631;42.152;24.756;2022-08-16T04:49:01;16.65;;;15.18;;
7179;SDS011;3631;42.152;24.756;2022-08-16T04:51:29;16.40;;;14.73;;
7179;SDS011;3631;42.152;24.756;2022-08-16T04:53:56;19.92;;;14.80;;
7179;SDS011;3631;42.152;24.756;2022-08-16T04:56:23;18.83;;;15.38;;
7179;SDS011;3631;42.152;24.756;2022-08-16T04:58:50;15.23;;;13.93;;
7179;SDS011;3631;42.152;24.756;2022-08-16T05:01:17;19.20;;;14.30;;
7179;SDS011;3631;42.152;24.756;2022-08-16T05:03:44;15.73;;;14.35;;
7179;SDS011;3631;42.152;24.756;2022-08-16T05:06:12;16.58;;;13.57;;
7179;SDS011;3631;42.152;24.756;2022-08-16T05:08:40;14.98;;;13.60;;
7179;SDS011;3631;42.152;24.756;2022-08-16T05:11:08;15.38;;;13.77;;
7179;SDS011;3631;42.152;24.756;2022-08-16T05:13:38;15.40;;;13.80;;
7179;SDS011;3631;42.152;24.756;2022-08-16T05:16:06;16.23;;;14.88;;
7179;SDS011;3631;42.152;24.756;2022-08-16T05:18:35;17.20;;;13.38;;
7179;SDS011;3631;42.152;24.756;2022-08-16T05:21:02;15.07;;;13.85;;
7179;SDS011;3631;42.152;24.756;2022-08-16T05:23:29;14.75;;;13.20;;
7179;SDS011;3631;42.152;24.756;2022-08-16T05:25:58;15.18;;;13.75;;
7179;SDS011;3631;42.152;24.756;2022-08-16T05:28:25;14.35;;;12.95;;
7179;SDS011;3631;42.152;24.756;2022-08-16T05:30:52;14.90;;;13.55;;
7179;SDS011;3631;42.152;24.756;2022-08-16T05:33:19;13.93;;;12.57;;
7179;SDS011;3631;42.152;24.756;2022-08-16T05:35:47;14.27;;;13.07;;
7179;SDS011;3631;42.152;24.756;2022-08-16T05:38:14;18.17;;;13.45;;
7179;SDS011;3631;42.152;24.756;2022-08-16T05:40:41;13.60;;;12.35;;
7179;SDS011;3631;42.152;24.756;2022-08-16T05:43:10;14.55;;;12.25;;
7179;SDS011;3631;42.152;24.756;2022-08-16T05:45:37;16.77;;;13.65;;
7179;SDS011;3631;42.152;24.756;2022-08-16T05:48:04;14.15;;;12.82;;
7179;SDS011;3631;42.152;24.756;2022-08-16T05:50:31;13.48;;;12.32;;
7179;SDS011;3631;42.152;24.756;2022-08-16T05:52:58;13.80;;;12.50;;
7179;SDS011;3631;42.152;24.756;2022-08-16T05:55:25;14.40;;;12.75;;
7179;SDS011;3631;42.152;24.756;2022-08-16T05:57:52;13.85;;;12.30;;
7179;SDS011;3631;42.152;24.756;2022-08-16T06:00:20;14.07;;;12.77;;
7179;SDS011;3631;42.152;24.756;2022-08-16T06:02:48;17.42;;;11.77;;
7179;SDS011;3631;42.152;24.756;2022-08-16T06:05:15;13.35;;;12.10;;
7179;SDS011;3631;42.152;24.756;2022-08-16T06:07:42;13.98;;;12.68;;
7179;SDS011;3631;42.152;24.756;2022-08-16T06:10:09;13.63;;;12.32;;
7179;SDS011;3631;42.152;24.756;2022-08-16T06:12:37;12.90;;;11.68;;
7179;SDS011;3631;42.152;24.756;2022-08-16T06:15:06;13.38;;;12.27;;
7179;SDS011;3631;42.152;24.756;2022-08-16T06:17:37;14.02;;;12.43;;
7179;SDS011;3631;42.152;24.756;2022-08-16T06:32:15;11.82;;;10.98;;
7179;SDS011;3631;42.152;24.756;2022-08-16T06:34:42;11.18;;;10.57;;
7179;SDS011;3631;42.152;24.756;2022-08-16T06:37:09;12.20;;;11.35;;
7179;SDS011;3631;42.152;24.756;2022-08-16T06:39:36;11.55;;;10.60;;
7179;SDS011;3631;42.152;24.756;2022-08-16T06:42:03;15.68;;;14.43;;
7179;SDS011;3631;42.152;24.756;2022-08-16T06:44:31;11.80;;;11.02;;
7179;SDS011;3631;42.152;24.756;2022-08-16T06:46:58;13.48;;;12.02;;
7179;SDS011;3631;42.152;24.756;2022-08-16T06:49:26;12.13;;;11.32;;
7179;SDS011;3631;42.152;24.756;2022-08-16T06:51:53;12.50;;;11.57;;
7179;SDS011;3631;42.152;24.756;2022-08-16T06:54:20;12.38;;;11.48;;
7179;SDS011;3631;42.152;24.756;2022-08-16T06:56:47;12.68;;;11.57;;
7179;SDS011;3631;42.152;24.756;2022-08-16T06:59:14;17.60;;;15.98;;
7179;SDS011;3631;42.152;24.756;2022-08-16T07:01:41;11.88;;;10.93;;
7179;SDS011;3631;42.152;24.756;2022-08-16T07:04:08;16.55;;;11.25;;
7179;SDS011;3631;42.152;24.756;2022-08-16T07:06:36;10.70;;;9.90;;
7179;SDS011;3631;42.152;24.756;2022-08-16T07:09:04;13.15;;;11.05;;
7179;SDS011;3631;42.152;24.756;2022-08-16T07:11:31;11.70;;;10.63;;
7179;SDS011;3631;42.152;24.756;2022-08-16T07:13:58;12.25;;;11.23;;
7179;SDS011;3631;42.152;24.756;2022-08-16T07:16:25;11.63;;;10.77;;
7179;SDS011;3631;42.152;24.756;2022-08-16T07:18:52;12.20;;;11.15;;
7179;SDS011;3631;42.152;24.756;2022-08-16T07:21:20;12.85;;;11.73;;
7179;SDS011;3631;42.152;24.756;2022-08-16T07:23:49;12.02;;;11.02;;
7179;SDS011;3631;42.152;24.756;2022-08-16T07:26:19;13.10;;;12.02;;
7179;SDS011;3631;42.152;24.756;2022-08-16T07:28:47;12.90;;;10.68;;
7179;SDS011;3631;42.152;24.756;2022-08-16T07:31:15;14.93;;;13.60;;
7179;SDS011;3631;42.152;24.756;2022-08-16T07:33:43;12.13;;;11.20;;
7179;SDS011;3631;42.152;24.756;2022-08-16T07:36:10;15.95;;;13.68;;
7179;SDS011;3631;42.152;24.756;2022-08-16T07:38:38;16.88;;;14.52;;
7179;SDS011;3631;42.152;24.756;2022-08-16T07:41:06;17.50;;;14.15;;
7179;SDS011;3631;42.152;24.756;2022-08-16T07:43:34;12.85;;;11.57;;
7179;SDS011;3631;42.152;24.756;2022-08-16T07:46:01;11.68;;;10.68;;
7179;SDS011;3631;42.152;24.756;2022-08-16T07:48:28;11.88;;;10.45;;
7179;SDS011;3631;42.152;24.756;2022-08-16T07:50:55;11.10;;;10.30;;
7179;SDS011;3631;42.152;24.756;2022-08-16T07:53:22;15.52;;;10.43;;
7179;SDS011;3631;42.152;24.756;2022-08-16T07:55:49;11.68;;;10.55;;
7179;SDS011;3631;42.152;24.756;2022-08-16T07:58:19;11.75;;;10.57;;
7179;SDS011;3631;42.152;24.756;2022-08-16T08:00:46;11.88;;;10.90;;
7179;SDS011;3631;42.152;24.756;2022-08-16T08:03:13;12.05;;;11.25;;
7179;SDS011;3631;42.152;24.756;2022-08-16T08:05:40;16.80;;;10.85;;
7179;SDS011;3631;42.152;24.756;2022-08-16T08:08:06;12.27;;;10.43;;
7179;SDS011;3631;42.152;24.756;2022-08-16T08:10:33;11.98;;;11.18;;
7179;SDS011;3631;42.152;24.756;2022-08-16T08:13:00;11.48;;;10.73;;
7179;SDS011;3631;42.152;24.756;2022-08-16T08:15:29;12.65;;;9.38;;
7179;SDS011;3631;42.152;24.756;2022-08-16T08:17:56;10.35;;;9.45;;
7179;SDS011;3631;42.152;24.756;2022-08-16T08:20:23;11.40;;;9.88;;
7179;SDS011;3631;42.152;24.756;2022-08-16T08:22:52;11.13;;;9.77;;
7179;SDS011;3631;42.152;24.756;2022-08-16T08:25:20;10.70;;;9.43;;
7179;SDS011;3631;42.152;24.756;2022-08-16T08:27:47;9.45;;;8.65;;
7179;SDS011;3631;42.152;24.756;2022-08-16T08:30:15;10.63;;;9.73;;
7179;SDS011;3631;42.152;24.756;2022-08-16T08:32:43;9.93;;;9.07;;
7179;SDS011;3631;42.152;24.756;2022-08-16T08:35:10;10.40;;;9.60;;
7179;SDS011;3631;42.152;24.756;2022-08-16T08:37:37;10.02;;;9.02;;
7179;SDS011;3631;42.152;24.756;2022-08-16T08:40:05;11.32;;;10.02;;
7179;SDS011;3631;42.152;24.756;2022-08-16T08:42:35;10.27;;;9.02;;
7179;SDS011;3631;42.152;24.756;2022-08-16T08:45:04;9.23;;;8.63;;
7179;SDS011;3631;42.152;24.756;2022-08-16T08:47:32;11.68;;;9.35;;
7179;SDS011;3631;42.152;24.756;2022-08-16T08:50:00;9.10;;;8.32;;
7179;SDS011;3631;42.152;24.756;2022-08-16T08:52:27;9.30;;;8.45;;
7179;SDS011;3631;42.152;24.756;2022-08-16T08:54:54;10.68;;;9.55;;
7179;SDS011;3631;42.152;24.756;2022-08-16T08:57:22;15.65;;;8.55;;
7179;SDS011;3631;42.152;24.756;2022-08-16T08:59:49;9.13;;;8.20;;
7179;SDS011;3631;42.152;24.756;2022-08-16T09:02:16;9.05;;;8.45;;
7179;SDS011;3631;42.152;24.756;2022-08-16T09:04:44;9.07;;;8.15;;
7179;SDS011;3631;42.152;24.756;2022-08-16T09:07:13;12.25;;;8.50;;
7179;SDS011;3631;42.152;24.756;2022-08-16T09:09:41;8.88;;;8.30;;
7179;SDS011;3631;42.152;24.756;2022-08-16T09:12:08;8.80;;;8.05;;
7179;SDS011;3631;42.152;24.756;2022-08-16T09:14:35;8.85;;;8.10;;
7179;SDS011;3631;42.152;24.756;2022-08-16T09:17:03;9.48;;;8.65;;
7179;SDS011;3631;42.152;24.756;2022-08-16T09:19:31;8.80;;;8.00;;
7179;SDS011;3631;42.152;24.756;2022-08-16T09:21:58;8.55;;;7.88;;
7179;SDS011;3631;42.152;24.756;2022-08-16T09:24:26;9.10;;;8.18;;
7179;SDS011;3631;42.152;24.756;2022-08-16T09:26:53;8.05;;;7.50;;
7179;SDS011;3631;42.152;24.756;2022-08-16T09:29:20;8.40;;;7.65;;
7179;SDS011;3631;42.152;24.756;2022-08-16T09:31:47;8.93;;;7.93;;
7179;SDS011;3631;42.152;24.756;2022-08-16T09:34:14;7.88;;;7.22;;
7179;SDS011;3631;42.152;24.756;2022-08-16T09:36:41;8.30;;;7.60;;
7179;SDS011;3631;42.152;24.756;2022-08-16T09:39:09;7.15;;;6.72;;
7179;SDS011;3631;42.152;24.756;2022-08-16T09:41:37;8.88;;;6.75;;
7179;SDS011;3631;42.152;24.756;2022-08-16T09:44:04;11.60;;;6.75;;
7179;SDS011;3631;42.152;24.756;2022-08-16T09:46:32;7.63;;;7.20;;
7179;SDS011;3631;42.152;24.756;2022-08-16T09:48:59;12.20;;;7.03;;
7179;SDS011;3631;42.152;24.756;2022-08-16T09:51:26;7.15;;;6.72;;
7179;SDS011;3631;42.152;24.756;2022-08-16T09:53:53;6.35;;;5.93;;
7179;SDS011;3631;42.152;24.756;2022-08-16T09:56:25;6.63;;;6.07;;
7179;SDS011;3631;42.152;24.756;2022-08-16T09:58:54;6.85;;;6.45;;
7179;SDS011;3631;42.152;24.756;2022-08-16T10:01:22;7.00;;;6.43;;
7179;SDS011;3631;42.152;24.756;2022-08-16T10:03:49;6.78;;;6.28;;
7179;SDS011;3631;42.152;24.756;2022-08-16T10:06:16;8.07;;;7.38;;
7179;SDS011;3631;42.152;24.756;2022-08-16T10:08:44;6.60;;;6.10;;
7179;SDS011;3631;42.152;24.756;2022-08-16T10:11:11;6.03;;;5.53;;
7179;SDS011;3631;42.152;24.756;2022-08-16T10:13:57;7.32;;;6.53;;
7179;SDS011;3631;42.152;24.756;2022-08-16T10:16:24;6.22;;;5.90;;
7179;SDS011;3631;42.152;24.756;2022-08-16T10:18:51;7.28;;;6.70;;
7179;SDS011;3631;42.152;24.756;2022-08-16T10:21:18;6.38;;;5.78;;
7179;SDS011;3631;42.152;24.756;2022-08-16T10:23:46;6.22;;;5.25;;
7179;SDS011;3631;42.152;24.756;2022-08-16T10:26:16;6.78;;;5.90;;
7179;SDS011;3631;42.152;24.756;2022-08-16T10:28:43;6.18;;;5.68;;
7179;SDS011;3631;42.152;24.756;2022-08-16T10:31:11;5.35;;;5.15;;
7179;SDS011;3631;42.152;24.756;2022-08-16T10:33:39;6.47;;;5.95;;
7179;SDS011;3631;42.152;24.756;2022-08-16T10:36:06;5.97;;;5.68;;
7179;SDS011;3631;42.152;24.756;2022-08-16T10:38:35;6.25;;;5.75;;
7179;SDS011;3631;42.152;24.756;2022-08-16T10:41:03;5.95;;;5.65;;
7179;SDS011;3631;42.152;24.756;2022-08-16T10:43:31;6.70;;;6.25;;
7179;SDS011;3631;42.152;24.756;2022-08-16T10:45:58;6.85;;;6.32;;
7179;SDS011;3631;42.152;24.756;2022-08-16T10:48:29;6.13;;;5.50;;
7179;SDS011;3631;42.152;24.756;2022-08-16T10:50:56;6.00;;;5.50;;
7179;SDS011;3631;42.152;24.756;2022-08-16T10:53:27;6.43;;;5.80;;
7179;SDS011;3631;42.152;24.756;2022-08-16T10:55:55;6.20;;;5.65;;
7179;SDS011;3631;42.152;24.756;2022-08-16T10:58:24;6.25;;;5.75;;
7179;SDS011;3631;42.152;24.756;2022-08-16T11:00:51;5.75;;;5.45;;
7179;SDS011;3631;42.152;24.756;2022-08-16T11:03:19;5.72;;;5.22;;
7179;SDS011;3631;42.152;24.756;2022-08-16T11:05:47;5.78;;;5.28;;
7179;SDS011;3631;42.152;24.756;2022-08-16T11:08:14;6.15;;;5.75;;
7179;SDS011;3631;42.152;24.756;2022-08-16T11:10:43;5.97;;;5.32;;
7179;SDS011;3631;42.152;24.756;2022-08-16T11:13:12;6.40;;;5.63;;
7179;SDS011;3631;42.152;24.756;2022-08-16T11:15:40;6.53;;;5.97;;
7179;SDS011;3631;42.152;24.756;2022-08-16T11:18:09;6.38;;;5.78;;
7179;SDS011;3631;42.152;24.756;2022-08-16T11:20:36;6.68;;;5.75;;
7179;SDS011;3631;42.152;24.756;2022-08-16T11:23:05;6.38;;;5.97;;
7179;SDS011;3631;42.152;24.756;2022-08-16T11:25:32;6.20;;;5.75;;
7179;SDS011;3631;42.152;24.756;2022-08-16T11:28:00;6.88;;;6.10;;
7179;SDS011;3631;42.152;24.756;2022-08-16T11:30:28;5.45;;;5.15;;
7179;SDS011;3631;42.152;24.756;2022-08-16T11:32:56;5.72;;;5.43;;
7179;SDS011;3631;42.152;24.756;2022-08-16T11:35:24;6.78;;;6.28;;
7179;SDS011;3631;42.152;24.756;2022-08-16T11:37:53;7.10;;;6.18;;
7179;SDS011;3631;42.152;24.756;2022-08-16T11:40:26;6.15;;;5.85;;
7179;SDS011;3631;42.152;24.756;2022-08-16T11:42:55;6.78;;;5.60;;
7179;SDS011;3631;42.152;24.756;2022-08-16T11:45:23;6.07;;;5.55;;
7179;SDS011;3631;42.152;24.756;2022-08-16T11:47:50;5.95;;;5.55;;
7179;SDS011;3631;42.152;24.756;2022-08-16T11:50:17;6.30;;;5.72;;
7179;SDS011;3631;42.152;24.756;2022-08-16T11:52:44;5.68;;;5.38;;
7179;SDS011;3631;42.152;24.756;2022-08-16T11:55:11;7.40;;;6.80;;
7179;SDS011;3631;42.152;24.756;2022-08-16T11:57:40;6.07;;;5.53;;
7179;SDS011;3631;42.152;24.756;2022-08-16T12:00:08;6.50;;;6.00;;
7179;SDS011;3631;42.152;24.756;2022-08-16T12:02:38;6.18;;;5.68;;
7179;SDS011;3631;42.152;24.756;2022-08-16T12:05:05;6.40;;;6.00;;
7179;SDS011;3631;42.152;24.756;2022-08-16T12:07:34;5.97;;;5.57;;
7179;SDS011;3631;42.152;24.756;2022-08-16T12:10:03;5.10;;;4.85;;
7179;SDS011;3631;42.152;24.756;2022-08-16T12:12:31;5.95;;;5.45;;
7179;SDS011;3631;42.152;24.756;2022-08-16T12:14:59;5.22;;;5.00;;
7179;SDS011;3631;42.152;24.756;2022-08-16T12:17:27;5.55;;;5.13;;
7179;SDS011;3631;42.152;24.756;2022-08-16T12:19:54;6.00;;;5.50;;
7179;SDS011;3631;42.152;24.756;2022-08-16T12:22:21;5.43;;;5.10;;
7179;SDS011;3631;42.152;24.756;2022-08-16T12:24:49;5.40;;;5.00;;
7179;SDS011;3631;42.152;24.756;2022-08-16T12:27:16;5.32;;;5.03;;
7179;SDS011;3631;42.152;24.756;2022-08-16T12:29:44;6.00;;;5.60;;
7179;SDS011;3631;42.152;24.756;2022-08-16T12:32:12;5.50;;;5.10;;
7179;SDS011;3631;42.152;24.756;2022-08-16T12:34:39;6.13;;;5.72;;
7179;SDS011;3631;42.152;24.756;2022-08-16T12:37:06;6.57;;;5.53;;
7179;SDS011;3631;42.152;24.756;2022-08-16T12:39:33;5.82;;;5.35;;
7179;SDS011;3631;42.152;24.756;2022-08-16T12:42:00;5.97;;;5.57;;
7179;SDS011;3631;42.152;24.756;2022-08-16T12:44:27;6.40;;;5.85;;
7179;SDS011;3631;42.152;24.756;2022-08-16T12:46:55;5.28;;;4.97;;
7179;SDS011;3631;42.152;24.756;2022-08-16T12:49:41;6.05;;;5.65;;
7179;SDS011;3631;42.152;24.756;2022-08-16T12:52:08;5.82;;;5.43;;
7179;SDS011;3631;42.152;24.756;2022-08-16T12:54:35;5.65;;;5.03;;
7179;SDS011;3631;42.152;24.756;2022-08-16T12:57:04;5.93;;;5.43;;
7179;SDS011;3631;42.152;24.756;2022-08-16T12:59:31;5.95;;;5.28;;
7179;SDS011;3631;42.152;24.756;2022-08-16T13:01:59;5.45;;;5.05;;
7179;SDS011;3631;42.152;24.756;2022-08-16T13:04:27;9.18;;;8.25;;
7179;SDS011;3631;42.152;24.756;2022-08-16T13:06:58;6.53;;;6.13;;
7179;SDS011;3631;42.152;24.756;2022-08-16T13:09:26;5.82;;;5.43;;
7179;SDS011;3631;42.152;24.756;2022-08-16T13:11:56;6.68;;;6.15;;
7179;SDS011;3631;42.152;24.756;2022-08-16T13:14:28;7.55;;;5.80;;
7179;SDS011;3631;42.152;24.756;2022-08-16T13:16:58;6.97;;;6.47;;
7179;SDS011;3631;42.152;24.756;2022-08-16T13:19:25;7.60;;;6.50;;
7179;SDS011;3631;42.152;24.756;2022-08-16T13:21:52;5.85;;;5.55;;
7179;SDS011;3631;42.152;24.756;2022-08-16T13:24:21;6.45;;;5.75;;
7179;SDS011;3631;42.152;24.756;2022-08-16T13:26:47;6.70;;;6.10;;
7179;SDS011;3631;42.152;24.756;2022-08-16T13:29:14;6.68;;;6.15;;
7179;SDS011;3631;42.152;24.756;2022-08-16T13:31:41;6.85;;;6.40;;
7179;SDS011;3631;42.152;24.756;2022-08-16T13:34:08;6.38;;;5.70;;
7179;SDS011;3631;42.152;24.756;2022-08-16T13:36:35;6.32;;;5.80;;
7179;SDS011;3631;42.152;24.756;2022-08-16T13:39:03;6.47;;;6.07;;
7179;SDS011;3631;42.152;24.756;2022-08-16T13:41:32;6.68;;;6.18;;
7179;SDS011;3631;42.152;24.756;2022-08-16T13:43:59;5.63;;;5.22;;
7179;SDS011;3631;42.152;24.756;2022-08-16T13:46:26;6.45;;;6.07;;
7179;SDS011;3631;42.152;24.756;2022-08-16T13:48:53;6.90;;;6.38;;
7179;SDS011;3631;42.152;24.756;2022-08-16T13:51:21;7.75;;;7.05;;
7179;SDS011;3631;42.152;24.756;2022-08-16T13:53:49;6.60;;;6.03;;
7179;SDS011;3631;42.152;24.756;2022-08-16T13:56:18;6.30;;;5.95;;
7179;SDS011;3631;42.152;24.756;2022-08-16T13:58:47;5.82;;;5.43;;
7179;SDS011;3631;42.152;24.756;2022-08-16T14:01:14;6.63;;;6.10;;
7179;SDS011;3631;42.152;24.756;2022-08-16T14:03:41;7.13;;;6.63;;
7179;SDS011;3631;42.152;24.756;2022-08-16T14:06:09;7.22;;;6.78;;
7179;SDS011;3631;42.152;24.756;2022-08-16T14:08:37;7.03;;;6.57;;
7179;SDS011;3631;42.152;24.756;2022-08-16T14:11:04;7.65;;;6.50;;
7179;SDS011;3631;42.152;24.756;2022-08-16T14:13:32;7.55;;;6.40;;
7179;SDS011;3631;42.152;24.756;2022-08-16T14:16:00;6.55;;;6.10;;
7179;SDS011;3631;42.152;24.756;2022-08-16T14:18:27;7.03;;;6.00;;
7179;SDS011;3631;42.152;24.756;2022-08-16T14:20:54;8.18;;;7.45;;
7179;SDS011;3631;42.152;24.756;2022-08-16T14:23:22;8.43;;;7.72;;
7179;SDS011;3631;42.152;24.756;2022-08-16T14:25:49;6.65;;;6.25;;
7179;SDS011;3631;42.152;24.756;2022-08-16T15:47:25;6.97;;;6.43;;
7179;SDS011;3631;42.152;24.756;2022-08-16T15:49:52;5.97;;;5.38;;
7179;SDS011;3631;42.152;24.756;2022-08-16T15:52:21;5.90;;;5.45;;
7179;SDS011;3631;42.152;24.756;2022-08-16T15:54:50;5.45;;;5.03;;
7179;SDS011;3631;42.152;24.756;2022-08-16T15:57:18;6.10;;;5.50;;
7179;SDS011;3631;42.152;24.756;2022-08-16T15:59:45;5.85;;;5.40;;
7179;SDS011;3631;42.152;24.756;2022-08-16T16:02:14;5.75;;;5.25;;
7179;SDS011;3631;42.152;24.756;2022-08-16T16:04:43;6.43;;;5.90;;
7179;SDS011;3631;42.152;24.756;2022-08-16T16:07:10;5.97;;;5.38;;
7179;SDS011;3631;42.152;24.756;2022-08-16T16:09:37;6.30;;;5.80;;
7179;SDS011;3631;42.152;24.756;2022-08-16T16:12:05;6.50;;;6.00;;
7179;SDS011;3631;42.152;24.756;2022-08-16T16:14:33;7.43;;;6.65;;
7179;SDS011;3631;42.152;24.756;2022-08-16T16:17:01;10.45;;;5.95;;
7179;SDS011;3631;42.152;24.756;2022-08-16T16:19:30;10.20;;;6.80;;
7179;SDS011;3631;42.152;24.756;2022-08-16T16:21:58;7.60;;;6.90;;